createdAt,value
2023-01-11T00:02:27.430Z,57.17
2023-01-11T00:04:54.612Z,58.83
2023-01-11T00:07:21.644Z,58.35
2023-01-11T00:09:48.672Z,57.22
2023-01-11T00:12:15.732Z,58.93
2023-01-11T00:14:42.749Z,59.95
2023-01-11T00:17:09.935Z,59.26
2023-01-11T00:19:37.069Z,55.38
2023-01-11T00:22:04.274Z,54.55
2023-01-11T00:24:31.269Z,55.23
2023-01-11T00:26:58.203Z,54.73
2023-01-11T00:29:25.376Z,53.40
2023-01-11T00:31:53.602Z,53.14
2023-01-11T00:34:20.845Z,52.56
2023-01-11T00:36:47.851Z,51.20
2023-01-11T00:39:14.892Z,51.99
2023-01-11T00:42:00.835Z,51.27
2023-01-11T00:44:46.657Z,50.21
2023-01-11T00:47:35.897Z,52.19
2023-01-11T00:50:04.726Z,53.21
2023-01-11T00:52:31.742Z,52.92
2023-01-11T00:54:58.925Z,51.94
2023-01-11T00:57:26.055Z,52.94
2023-01-11T00:59:53.153Z,52.73
2023-01-11T01:02:20.239Z,52.63
2023-01-11T01:04:47.458Z,52.27
2023-01-11T01:07:14.392Z,54.27
2023-01-11T01:09:41.408Z,53.03
2023-01-11T01:12:09.507Z,52.34
2023-01-11T01:14:36.696Z,52.81
2023-01-11T01:17:07.778Z,51.87
2023-01-11T01:19:36.534Z,51.17
2023-01-11T01:22:04.089Z,51.43
2023-01-11T01:24:31.196Z,50.91
2023-01-11T01:26:58.478Z,50.52
2023-01-11T01:29:26.023Z,50.47
2023-01-11T01:31:53.253Z,50.02
2023-01-11T01:34:20.217Z,50.33
2023-01-11T01:36:47.229Z,50.61
2023-01-11T01:39:14.205Z,50.28
2023-01-11T01:41:41.259Z,50.31
2023-01-11T01:44:46.087Z,49.62
2023-01-11T01:47:13.111Z,49.91
2023-01-11T01:49:40.148Z,50.44
2023-01-11T01:52:07.157Z,49.86
2023-01-11T01:54:36.989Z,49.96
2023-01-11T01:57:11.805Z,52.18
2023-01-11T01:59:38.827Z,53.90
2023-01-11T02:02:05.825Z,52.63
2023-01-11T02:04:35.740Z,52.54
2023-01-11T02:07:04.889Z,51.95
2023-01-11T02:10:08.141Z,55.24
2023-01-11T02:12:38.311Z,54.81
2023-01-11T02:15:05.822Z,53.51
2023-01-11T02:17:35.150Z,53.76
2023-01-11T02:20:08.495Z,53.53
2023-01-11T02:23:13.418Z,55.37
2023-01-11T02:26:05.498Z,57.12
2023-01-11T02:28:49.748Z,57.24
2023-01-11T02:31:36.661Z,57.32
2023-01-11T02:34:38.042Z,56.75
2023-01-11T02:37:27.226Z,58.19
2023-01-11T02:40:13.048Z,59.00
2023-01-11T02:43:02.507Z,57.39
2023-01-11T02:45:29.561Z,58.43
2023-01-11T02:48:02.608Z,58.97
2023-01-11T02:50:36.689Z,57.24
2023-01-11T02:53:08.001Z,56.15
2023-01-11T02:55:37.785Z,55.74
2023-01-11T02:58:06.799Z,56.75
2023-01-11T03:00:34.920Z,56.03
2023-01-11T03:03:10.155Z,56.71
2023-01-11T03:05:40.118Z,57.15
2023-01-11T03:08:33.608Z,57.76
2023-01-11T03:11:04.778Z,56.58
2023-01-11T03:13:54.931Z,57.13
2023-01-11T03:16:25.422Z,60.48
2023-01-11T03:18:58.674Z,59.55
2023-01-11T03:21:44.156Z,64.23
2023-01-11T03:24:19.777Z,63.24
2023-01-11T03:26:52.385Z,62.52
2023-01-11T03:29:48.473Z,64.28
2023-01-11T03:32:44.969Z,62.71
2023-01-11T03:35:18.002Z,62.46
2023-01-11T03:38:09.552Z,66.09
2023-01-11T03:40:55.633Z,63.29
2023-01-11T03:43:23.069Z,63.27
2023-01-11T03:45:51.269Z,64.51
2023-01-11T03:48:40.000Z,64.41
2023-01-11T03:51:08.859Z,60.80
2023-01-11T03:53:36.461Z,60.05
2023-01-11T03:56:03.774Z,59.77
2023-01-11T03:58:30.777Z,59.69
2023-01-11T04:00:58.205Z,57.98
2023-01-11T04:03:27.113Z,60.45
2023-01-11T04:05:58.139Z,58.32
2023-01-11T04:08:25.686Z,57.36
2023-01-11T04:10:52.878Z,56.60
2023-01-11T04:13:19.943Z,55.88
2023-01-11T04:15:46.943Z,55.52
2023-01-11T04:18:13.888Z,55.48
2023-01-11T04:20:40.951Z,55.17
2023-01-11T04:23:08.483Z,55.47
2023-01-11T04:25:35.503Z,54.94
2023-01-11T04:28:02.727Z,55.69
2023-01-11T04:30:29.730Z,55.05
2023-01-11T04:32:59.937Z,55.91
2023-01-11T04:35:27.022Z,55.23
2023-01-11T04:37:57.664Z,54.94
2023-01-11T04:40:25.010Z,54.87
2023-01-11T04:42:52.721Z,55.22
2023-01-11T04:45:20.037Z,55.83
2023-01-11T04:47:47.049Z,55.85
2023-01-11T04:50:14.717Z,55.11
2023-01-11T04:52:42.001Z,55.56
2023-01-11T04:55:09.495Z,54.81
2023-01-11T04:57:36.632Z,54.47
2023-01-11T05:00:08.012Z,54.89
2023-01-11T05:02:35.030Z,55.70
2023-01-11T05:05:02.090Z,55.09
2023-01-11T05:07:29.082Z,54.79
2023-01-11T05:09:56.111Z,54.17
2023-01-11T05:12:23.338Z,54.40
2023-01-11T05:14:50.791Z,54.79
2023-01-11T05:17:20.700Z,54.52
2023-01-11T05:19:47.736Z,53.81
2023-01-11T05:22:14.756Z,54.29
2023-01-11T05:24:42.203Z,54.14
2023-01-11T05:27:09.395Z,54.48
2023-01-11T05:29:36.600Z,53.32
2023-01-11T05:32:03.837Z,53.94
2023-01-11T05:34:31.033Z,54.55
2023-01-11T05:36:58.136Z,53.94
2023-01-11T05:39:25.221Z,53.69
2023-01-11T05:41:52.195Z,53.30
2023-01-11T05:44:37.782Z,53.94
2023-01-11T05:47:04.822Z,55.00
2023-01-11T05:49:31.992Z,54.25
2023-01-11T05:52:00.523Z,54.90
2023-01-11T05:54:27.931Z,56.27
2023-01-11T05:56:56.925Z,55.41
2023-01-11T05:59:23.968Z,54.72
2023-01-11T06:01:51.189Z,54.41
2023-01-11T06:04:18.263Z,54.75
2023-01-11T06:06:45.363Z,54.69
2023-01-11T06:09:12.359Z,54.52
2023-01-11T06:11:39.395Z,54.74
2023-01-11T06:14:06.419Z,53.98
2023-01-11T06:16:33.465Z,54.99
2023-01-11T06:19:00.462Z,54.69
2023-01-11T06:21:28.692Z,54.10
2023-01-11T06:23:55.648Z,54.59
2023-01-11T06:26:22.761Z,54.68
2023-01-11T06:28:50.008Z,53.97
2023-01-11T06:31:18.131Z,55.04
2023-01-11T06:33:45.985Z,54.54
2023-01-11T06:36:13.431Z,54.25
2023-01-11T06:38:40.505Z,54.34
2023-01-11T06:41:10.268Z,53.85
2023-01-11T06:43:38.309Z,54.24
2023-01-11T06:46:05.495Z,54.96
2023-01-11T06:48:32.481Z,54.32
2023-01-11T06:50:59.586Z,53.78
2023-01-11T06:53:28.867Z,54.30
2023-01-11T06:55:57.274Z,54.84
2023-01-11T06:58:24.624Z,54.49
2023-01-11T07:00:52.500Z,56.70
2023-01-11T07:03:20.620Z,58.21
2023-01-11T07:05:47.671Z,57.26
2023-01-11T07:08:14.699Z,59.47
2023-01-11T07:10:42.321Z,60.48
2023-01-11T07:13:11.295Z,62.06
2023-01-11T07:15:38.340Z,62.79
2023-01-11T07:18:05.394Z,64.93
2023-01-11T07:20:32.331Z,64.76
2023-01-11T07:22:59.975Z,63.62
2023-01-11T07:25:30.467Z,61.39
2023-01-11T07:28:01.915Z,59.02
2023-01-11T07:30:29.984Z,60.14
2023-01-11T07:33:00.327Z,60.62
2023-01-11T07:35:29.016Z,59.88
2023-01-11T07:37:56.133Z,58.89
2023-01-11T07:40:23.149Z,56.56
2023-01-11T07:43:10.699Z,56.49
2023-01-11T07:45:45.885Z,55.77
2023-01-11T07:48:13.789Z,56.36
2023-01-11T07:50:44.057Z,58.12
2023-01-11T07:53:13.023Z,56.83
2023-01-11T07:55:40.847Z,56.51
2023-01-11T07:58:16.946Z,56.05
2023-01-11T08:00:44.255Z,55.86
2023-01-11T08:03:11.339Z,55.87
2023-01-11T08:05:38.546Z,55.81
2023-01-11T08:08:05.709Z,56.15
2023-01-11T08:10:32.864Z,56.82
2023-01-11T08:13:18.757Z,58.53
2023-01-11T08:15:45.940Z,56.78
2023-01-11T08:18:13.157Z,62.14
2023-01-11T08:20:40.282Z,64.17
2023-01-11T08:23:08.960Z,64.15
2023-01-11T08:25:35.960Z,62.20
2023-01-11T08:28:03.745Z,60.68
2023-01-11T08:30:30.710Z,59.95
2023-01-11T08:33:00.115Z,57.57
2023-01-11T08:35:27.227Z,56.65
2023-01-11T08:37:54.262Z,56.67
2023-01-11T08:40:23.840Z,56.69
2023-01-11T08:42:57.890Z,55.39
2023-01-11T08:45:25.497Z,55.63
2023-01-11T08:47:52.606Z,54.82
2023-01-11T08:50:20.163Z,54.64
2023-01-11T08:52:48.097Z,53.56
2023-01-11T08:55:15.042Z,53.92
2023-01-11T08:57:42.004Z,54.32
2023-01-11T09:00:09.499Z,54.90
2023-01-11T09:02:36.555Z,54.42
2023-01-11T09:05:03.569Z,61.07
2023-01-11T09:07:30.511Z,64.85
2023-01-11T09:09:57.464Z,66.10
2023-01-11T09:12:24.578Z,66.19
2023-01-11T09:14:51.586Z,63.77
2023-01-11T09:17:18.499Z,64.31
2023-01-11T09:19:45.432Z,65.02
2023-01-11T09:22:12.378Z,66.65
2023-01-11T09:24:39.332Z,64.93
2023-01-11T09:27:06.435Z,64.65
2023-01-11T09:29:35.581Z,61.04
2023-01-11T09:32:04.229Z,62.15
2023-01-11T09:34:31.824Z,60.52
2023-01-11T09:37:00.816Z,58.22
2023-01-11T09:39:28.905Z,59.98
2023-01-11T09:42:11.670Z,62.49
2023-01-11T09:44:52.102Z,64.11
2023-01-11T09:47:31.877Z,65.32
2023-01-11T09:50:01.659Z,65.55
2023-01-11T09:52:38.399Z,65.21
2023-01-11T09:55:06.714Z,63.75
2023-01-11T09:57:39.599Z,62.27
2023-01-11T10:00:13.164Z,61.56
2023-01-11T10:03:01.523Z,59.56
2023-01-11T10:06:21.232Z,59.42
2023-01-11T10:18:33.151Z,59.57
2023-01-11T10:18:38.922Z,56.86
2023-01-11T10:21:13.450Z,55.17
2023-01-11T10:23:49.783Z,54.08
2023-01-11T10:26:23.449Z,53.19
2023-01-11T10:29:14.656Z,53.24
2023-01-11T10:32:00.036Z,54.11
2023-01-11T10:34:54.900Z,52.62
2023-01-11T10:37:47.175Z,51.92
2023-01-11T10:40:35.424Z,53.49
2023-01-11T10:43:22.595Z,54.34
2023-01-11T10:46:13.631Z,53.30
2023-01-11T10:48:42.624Z,54.92
2023-01-11T10:51:12.779Z,53.05
2023-01-11T10:53:43.602Z,52.44
2023-01-11T10:56:20.174Z,53.08
2023-01-11T10:59:05.180Z,52.16
2023-01-11T11:01:56.819Z,51.80
2023-01-11T11:05:02.838Z,53.95
2023-01-11T11:07:32.936Z,52.84
2023-01-11T11:10:49.097Z,52.28
2023-01-11T11:13:23.872Z,51.50
2023-01-11T11:16:17.084Z,54.85
2023-01-11T11:18:45.510Z,53.19
2023-01-11T11:21:23.804Z,53.22
2023-01-11T11:23:56.161Z,53.78
2023-01-11T11:26:23.500Z,54.92
2023-01-11T11:29:08.339Z,53.90
2023-01-11T11:31:36.841Z,55.17
2023-01-11T11:34:33.431Z,51.50
2023-01-11T11:37:00.868Z,49.95
2023-01-11T11:39:31.033Z,50.71
2023-01-11T11:42:08.948Z,52.46
2023-01-11T11:44:35.960Z,51.21
2023-01-11T11:47:07.389Z,53.68
2023-01-11T11:49:35.534Z,55.11
2023-01-11T11:52:04.101Z,53.60
2023-01-11T11:54:41.537Z,52.76
2023-01-11T11:57:21.085Z,51.07
2023-01-11T11:59:49.350Z,52.50
2023-01-11T12:02:28.167Z,52.25
2023-01-11T12:04:55.177Z,55.79
2023-01-11T12:07:23.372Z,57.02
2023-01-11T12:09:57.582Z,56.55
2023-01-11T12:12:27.820Z,55.43
2023-01-11T12:15:20.290Z,54.09
2023-01-11T12:17:47.912Z,55.70
2023-01-11T12:20:24.035Z,55.25
2023-01-11T12:22:51.410Z,54.30
2023-01-11T12:25:22.003Z,52.42
2023-01-11T12:28:18.190Z,56.75
2023-01-11T12:30:53.365Z,55.23
2023-01-11T12:33:39.126Z,57.38
2023-01-11T12:36:18.750Z,56.35
2023-01-11T12:39:12.735Z,54.95
2023-01-11T12:41:50.371Z,55.66
2023-01-11T12:44:34.950Z,53.49
2023-01-11T12:47:15.311Z,55.79
2023-01-11T12:49:57.012Z,54.91
2023-01-11T12:52:36.185Z,55.06
2023-01-11T12:55:28.216Z,54.23
2023-01-11T12:58:18.354Z,54.58
2023-01-11T13:01:13.269Z,56.93
2023-01-11T13:03:58.886Z,53.99
2023-01-11T13:06:34.783Z,53.57
2023-01-11T13:09:06.206Z,53.53
2023-01-11T13:12:04.264Z,56.14
2023-01-11T13:14:34.234Z,53.79
2023-01-11T13:17:17.981Z,54.03
2023-01-11T13:19:51.430Z,52.03
2023-01-11T13:22:19.913Z,52.29
2023-01-11T13:24:51.067Z,52.50
2023-01-11T13:27:22.545Z,57.31
2023-01-11T13:29:52.238Z,58.17
2023-01-11T13:32:23.614Z,59.14
2023-01-11T13:34:59.442Z,57.40
2023-01-11T13:37:41.855Z,56.87
2023-01-11T13:40:19.087Z,55.50
2023-01-11T13:42:51.947Z,55.19
2023-01-11T13:45:24.363Z,55.58
2023-01-11T13:47:53.816Z,55.28
2023-01-11T13:50:29.049Z,54.29
2023-01-11T13:53:10.024Z,54.80
2023-01-11T13:55:40.101Z,53.73
2023-01-11T13:58:12.205Z,54.60
2023-01-11T14:01:03.650Z,54.13
2023-01-11T14:03:47.242Z,54.76
2023-01-11T14:06:26.602Z,52.90
2023-01-11T14:09:35.013Z,52.88
2023-01-11T14:12:01.968Z,53.78
2023-01-11T14:14:50.246Z,54.13
2023-01-11T14:17:40.398Z,54.15
2023-01-11T14:20:15.348Z,54.55
2023-01-11T14:22:55.300Z,55.68
2023-01-11T14:25:30.179Z,53.15
2023-01-11T14:28:06.170Z,52.54
2023-01-11T14:31:07.829Z,55.37
2023-01-11T14:33:50.364Z,55.24
2023-01-11T14:36:45.947Z,56.37
2023-01-11T14:39:28.029Z,58.36
2023-01-11T14:42:04.106Z,57.62
2023-01-11T14:45:02.173Z,58.90
2023-01-11T14:47:45.138Z,61.71
2023-01-11T14:50:15.045Z,62.71
2023-01-11T14:52:42.205Z,62.94
2023-01-11T14:55:15.181Z,61.80
2023-01-11T14:58:01.591Z,61.23
2023-01-11T15:00:28.563Z,61.90
2023-01-11T15:03:01.267Z,59.33
2023-01-11T15:05:28.161Z,61.48
2023-01-11T15:08:14.424Z,61.23
2023-01-11T15:11:00.338Z,60.38
2023-01-11T15:13:35.707Z,60.50
2023-01-11T15:16:42.199Z,59.71
2023-01-11T15:19:23.831Z,58.83
2023-01-11T15:21:53.294Z,58.23
2023-01-11T15:24:25.458Z,60.04
2023-01-11T15:26:52.566Z,62.11
2023-01-11T15:29:33.023Z,61.99
2023-01-11T15:32:04.422Z,62.73
2023-01-11T15:34:31.343Z,62.98
2023-01-11T15:37:02.310Z,60.15
2023-01-11T15:39:48.094Z,59.75
2023-01-11T15:42:24.307Z,58.78
2023-01-11T15:45:16.386Z,61.38
2023-01-11T15:48:19.528Z,60.13
2023-01-11T15:51:08.102Z,65.59
2023-01-11T15:53:55.689Z,62.93
2023-01-11T15:56:49.345Z,62.38
2023-01-11T15:59:25.536Z,61.81
2023-01-11T16:02:14.365Z,63.81
2023-01-11T16:04:56.910Z,62.21
2023-01-11T16:07:40.471Z,62.64
2023-01-11T16:10:27.811Z,62.83
2023-01-11T16:12:54.756Z,64.88
2023-01-11T16:15:58.290Z,66.82
2023-01-11T16:18:33.967Z,66.91
2023-01-11T16:21:07.865Z,67.34
2023-01-11T16:23:34.879Z,68.55
2023-01-11T16:26:01.927Z,66.13
2023-01-11T16:28:28.855Z,67.86
2023-01-11T16:31:02.994Z,66.73
2023-01-11T16:33:31.270Z,66.50
2023-01-11T16:36:07.584Z,68.59
2023-01-11T16:38:42.673Z,73.28
2023-01-11T16:41:13.237Z,73.00
2023-01-11T16:43:46.109Z,70.79
2023-01-11T16:46:33.219Z,72.23
2023-01-11T16:49:08.971Z,71.84
2023-01-11T16:51:36.011Z,73.24
2023-01-11T16:54:03.088Z,73.74
2023-01-11T16:56:31.481Z,73.30
2023-01-11T16:59:20.285Z,73.99
2023-01-11T17:01:51.371Z,73.07
2023-01-11T17:04:44.406Z,73.79
2023-01-11T17:07:13.481Z,70.74
2023-01-11T17:09:43.642Z,68.82
2023-01-11T17:12:15.152Z,69.65
2023-01-11T17:14:54.426Z,69.87
2023-01-11T17:17:21.538Z,70.80
2023-01-11T17:19:49.093Z,70.84
2023-01-11T17:22:17.163Z,67.26
2023-01-11T17:24:53.853Z,66.16
2023-01-11T17:27:23.188Z,67.38
2023-01-11T17:29:52.079Z,69.30
2023-01-11T17:32:32.178Z,68.40
2023-01-11T17:34:59.167Z,71.40
2023-01-11T17:37:26.112Z,67.94
2023-01-11T17:39:53.795Z,65.86
2023-01-11T17:42:39.569Z,64.20
2023-01-11T17:45:22.769Z,64.22
2023-01-11T17:47:51.476Z,64.20
2023-01-11T17:50:19.795Z,63.21
2023-01-11T17:52:54.484Z,64.42
2023-01-11T17:55:25.974Z,68.32
2023-01-11T17:58:26.647Z,65.20
2023-01-11T18:01:08.869Z,64.67
2023-01-11T18:03:57.955Z,63.12
2023-01-11T18:06:41.599Z,64.42
2023-01-11T18:09:17.816Z,63.47
2023-01-11T18:11:44.744Z,63.47
2023-01-11T18:14:28.093Z,63.33
2023-01-11T18:17:05.565Z,63.05
2023-01-11T18:19:33.656Z,62.47
2023-01-11T18:22:00.647Z,64.03
2023-01-11T18:24:30.038Z,63.88
2023-01-11T18:27:15.431Z,68.67
2023-01-11T18:29:42.488Z,65.65
2023-01-11T18:32:13.014Z,64.46
2023-01-11T18:34:40.496Z,63.52
2023-01-11T18:37:07.553Z,66.80
2023-01-11T18:39:35.033Z,67.21
2023-01-11T18:42:11.736Z,65.60
2023-01-11T18:44:39.590Z,67.40
2023-01-11T18:47:23.639Z,65.12
2023-01-11T18:49:51.130Z,72.99
2023-01-11T18:52:18.891Z,69.67
2023-01-11T18:54:46.228Z,71.00
2023-01-11T18:57:13.264Z,69.69
2023-01-11T18:59:40.278Z,67.50
2023-01-11T19:02:16.585Z,72.57
2023-01-11T19:04:44.051Z,70.00
2023-01-11T19:07:11.303Z,71.88
2023-01-11T19:09:38.363Z,72.06
2023-01-11T19:12:05.703Z,70.54
2023-01-11T19:14:32.927Z,69.13
2023-01-11T19:16:59.841Z,65.97
2023-01-11T19:19:26.794Z,66.53
2023-01-11T19:21:54.207Z,66.23
2023-01-11T19:24:21.242Z,66.83
2023-01-11T19:26:49.402Z,71.34
2023-01-11T19:29:19.124Z,69.12
2023-01-11T19:31:46.708Z,68.00
2023-01-11T19:34:13.952Z,70.20
2023-01-11T19:36:41.044Z,68.09
2023-01-11T19:39:11.179Z,68.44
2023-01-11T19:41:57.133Z,66.69
2023-01-11T19:44:26.718Z,67.27
2023-01-11T19:47:09.677Z,64.39
2023-01-11T19:49:37.855Z,63.91
2023-01-11T19:52:05.629Z,65.68
2023-01-11T19:54:32.625Z,63.26
2023-01-11T19:56:59.692Z,63.69
2023-01-11T19:59:26.765Z,67.26
2023-01-11T20:01:54.001Z,66.13
2023-01-11T20:04:21.302Z,62.65
2023-01-11T20:06:52.197Z,60.94
2023-01-11T20:09:19.674Z,60.35
2023-01-11T20:11:46.837Z,63.06
2023-01-11T20:14:13.884Z,60.69
2023-01-11T20:16:40.895Z,60.19
2023-01-11T20:19:07.921Z,60.43
2023-01-11T20:21:35.429Z,61.65
2023-01-11T20:24:02.890Z,61.30
2023-01-11T20:26:31.464Z,66.87
2023-01-11T20:28:58.860Z,64.35
2023-01-11T20:31:28.408Z,63.23
2023-01-11T20:33:56.099Z,69.12
2023-01-11T20:36:23.207Z,65.58
2023-01-11T20:38:50.181Z,63.76
2023-01-11T20:41:37.713Z,62.78
2023-01-11T20:44:05.829Z,64.39
2023-01-11T20:46:33.515Z,62.22
2023-01-11T20:49:00.711Z,61.19
2023-01-11T20:51:28.050Z,61.40
2023-01-11T20:53:55.388Z,62.48
2023-01-11T20:56:22.492Z,64.10
2023-01-11T20:58:51.531Z,60.92
2023-01-11T21:01:19.947Z,60.75
2023-01-11T21:03:46.928Z,59.95
2023-01-11T21:06:15.635Z,59.68
2023-01-11T21:08:43.017Z,68.11
2023-01-11T21:11:12.007Z,66.75
2023-01-11T21:13:39.011Z,64.60
2023-01-11T21:16:15.899Z,62.10
2023-01-11T21:18:46.647Z,59.92
2023-01-11T21:21:15.398Z,59.56
2023-01-11T21:23:42.507Z,59.36
2023-01-11T21:26:13.760Z,58.75
2023-01-11T21:28:41.079Z,58.84
2023-01-11T21:31:09.063Z,60.03
2023-01-11T21:33:37.460Z,61.10
2023-01-11T21:36:06.037Z,60.44
2023-01-11T21:38:33.245Z,64.19
2023-01-11T21:41:07.095Z,61.89
2023-01-11T21:43:34.421Z,62.70
2023-01-11T21:46:01.634Z,61.58
2023-01-11T21:48:28.676Z,61.02
2023-01-11T21:50:55.626Z,60.79
2023-01-11T21:53:23.265Z,59.52
2023-01-11T21:55:50.446Z,60.52
2023-01-11T21:58:17.557Z,60.21
2023-01-11T22:00:44.744Z,60.79
2023-01-11T22:03:11.809Z,61.50
2023-01-11T22:05:38.760Z,60.08
2023-01-11T22:08:05.736Z,60.51
2023-01-11T22:10:33.477Z,61.11
2023-01-11T22:13:00.626Z,62.23
2023-01-11T22:15:27.628Z,61.79
2023-01-11T22:17:54.531Z,63.37
2023-01-11T22:20:21.513Z,62.06
2023-01-11T22:22:48.563Z,61.29
2023-01-11T22:25:15.706Z,64.34
2023-01-11T22:27:42.697Z,63.34
2023-01-11T22:30:10.248Z,63.33
2023-01-11T22:32:37.189Z,67.78
2023-01-11T22:35:04.245Z,68.98
2023-01-11T22:37:31.247Z,67.86
2023-01-11T22:40:00.124Z,65.99
2023-01-11T22:42:28.468Z,66.94
2023-01-11T22:44:55.457Z,68.31
2023-01-11T22:47:22.407Z,66.09
2023-01-11T22:49:54.032Z,66.54
2023-01-11T22:52:21.765Z,64.76
2023-01-11T22:54:48.844Z,62.79
2023-01-11T22:57:15.794Z,61.28
2023-01-11T22:59:42.756Z,63.22
2023-01-11T23:02:09.695Z,61.86
2023-01-11T23:04:36.737Z,60.31
2023-01-11T23:07:03.978Z,61.88
2023-01-11T23:09:30.955Z,62.61
2023-01-11T23:12:16.378Z,65.22
2023-01-11T23:14:43.383Z,65.59
2023-01-11T23:17:10.741Z,65.36
2023-01-11T23:19:41.031Z,64.80
2023-01-11T23:22:08.528Z,64.89
2023-01-11T23:24:36.267Z,65.50
2023-01-11T23:27:03.287Z,64.42
2023-01-11T23:29:30.317Z,62.36
2023-01-11T23:31:57.287Z,66.62
2023-01-11T23:34:24.353Z,64.31
2023-01-11T23:36:51.263Z,63.13
2023-01-11T23:39:21.324Z,62.38
2023-01-11T23:42:07.108Z,63.08
2023-01-11T23:44:34.253Z,66.65
2023-01-11T23:47:19.882Z,65.53
2023-01-11T23:49:50.367Z,65.54
2023-01-11T23:52:18.844Z,63.71
2023-01-11T23:54:45.868Z,64.23
2023-01-11T23:57:13.545Z,68.07
2023-01-11T23:59:41.117Z,64.71
